Time;durP1;ratioP1;P1;durP2;ratioP2;P2;SDS_P1;SDS_P2;PMS_P1;PMS_P2;Temp;Humidity;BMP_temperature;BMP_pressure;BME280_temperature;BME280_humidity;BME280_pressure;Samples;Min_cycle;Max_cycle;Signal;HPM_P1;HPM_P2
2022/08/05 00:01:23;;;;;;;5.20;3.20;;;;;;;29.95;32.33;101129.88;143759;628;45008;-67
2022/08/05 00:03:50;;;;;;;3.40;2.95;;;;;;;29.97;32.17;101131.50;143755;589;46004;-67
2022/08/05 00:06:17;;;;;;;5.10;3.50;;;;;;;29.97;31.86;101131.50;143752;594;46008;-67
2022/08/05 00:08:43;;;;;;;7.18;3.10;;;;;;;29.99;31.88;101134.78;143751;633;46004;-67
2022/08/05 00:11:12;;;;;;;4.80;3.35;;;;;;;30.01;31.96;101127.75;143753;606;46006;-67
2022/08/05 00:13:40;;;;;;;6.68;3.25;;;;;;;30.02;33.14;101134.12;143755;656;46004;-68
2022/08/05 00:16:11;;;;;;;5.85;3.25;;;;;;;29.97;33.46;101129.56;143732;574;47005;-68
2022/08/05 00:18:38;;;;;;;4.90;3.10;;;;;;;29.87;33.50;101125.09;143730;568;47004;-68
2022/08/05 00:21:05;;;;;;;6.10;3.17;;;;;;;29.83;33.61;101135.19;143729;604;47925;-68
2022/08/05 00:23:32;;;;;;;6.00;3.72;;;;;;;29.77;33.73;101133.69;143731;575;47003;-67
2022/08/05 00:25:58;;;;;;;5.03;3.72;;;;;;;29.73;33.89;101139.06;143732;580;46008;-67
2022/08/05 00:28:24;;;;;;;6.10;3.50;;;;;;;29.71;34.24;101127.47;143730;575;47004;-67
2022/08/05 00:30:51;;;;;;;4.57;3.37;;;;;;;29.70;34.00;101127.81;143729;645;46925;-67
2022/08/05 00:33:17;;;;;;;4.95;3.30;;;;;;;29.69;34.08;101128.94;143731;608;47004;-67
2022/08/05 00:35:43;;;;;;;5.65;3.55;;;;;;;29.64;34.55;101124.38;143727;593;47004;-67
2022/08/05 00:38:10;;;;;;;7.43;3.60;;;;;;;29.63;34.26;101128.28;143729;569;47004;-67
2022/08/05 00:40:49;;;;;;;8.45;3.62;;;;;;;29.60;34.17;101121.41;143730;628;47006;-67
2022/08/05 00:43:16;;;;;;;5.43;3.30;;;;;;;29.63;33.94;101119.97;143730;631;47002;-67
2022/08/05 00:45:43;;;;;;;4.82;3.50;;;;;;;29.63;34.01;101122.72;143730;616;46010;-67
2022/08/05 00:48:11;;;;;;;5.00;3.35;;;;;;;29.61;34.16;101120.25;143728;592;47004;-67
2022/08/05 00:50:41;;;;;;;4.10;2.95;;;;;;;29.60;33.50;101115.06;143729;572;47006;-67
2022/08/05 00:53:08;;;;;;;5.70;3.10;;;;;;;29.63;33.01;101118.00;143731;634;47002;-68
2022/08/05 00:55:34;;;;;;;4.30;3.12;;;;;;;29.65;32.90;101115.72;143733;569;46016;-68
2022/08/05 00:58:01;;;;;;;5.68;3.00;;;;;;;29.68;32.65;101119.00;143728;578;47004;-67
2022/08/05 01:00:29;;;;;;;4.97;2.92;;;;;;;29.64;32.45;101116.88;143732;598;46006;-67
2022/08/05 01:02:57;;;;;;;3.60;3.03;;;;;;;29.60;32.91;101113.09;143731;617;47002;-67
2022/08/05 01:05:24;;;;;;;4.35;2.80;;;;;;;29.61;32.87;101113.94;143730;612;47010;-68
2022/08/05 01:07:51;;;;;;;4.87;3.03;;;;;;;29.58;33.44;101115.37;143728;579;47005;-68
2022/08/05 01:10:21;;;;;;;4.72;3.15;;;;;;;29.54;33.29;101108.03;143731;617;47006;-67
2022/08/05 01:13:03;;;;;;;4.43;2.90;;;;;;;29.56;33.32;101122.38;143730;586;47004;-68
2022/08/05 01:15:38;;;;;;;4.57;2.80;;;;;;;29.54;33.93;101122.69;143730;573;47010;-67
2022/08/05 01:18:11;;;;;;;6.00;3.10;;;;;;;29.52;33.49;101116.66;143728;567;47004;-67
2022/08/05 01:21:18;;;;;;;3.80;3.05;;;;;;;29.49;34.02;101112.56;143729;572;46925;-67
2022/08/05 01:24:21;;;;;;;5.60;3.22;;;;;;;29.48;34.07;101116.47;143727;571;49004;-67
2022/08/05 01:27:02;;;;;;;5.93;3.10;;;;;;;29.48;33.78;101112.88;143723;573;47008;-67
2022/08/05 01:29:36;;;;;;;3.12;2.70;;;;;;;29.50;34.03;101108.66;143722;613;47004;-67
2022/08/05 01:32:08;;;;;;;5.90;3.53;;;;;;;29.44;34.60;101104.41;143724;638;47006;-67
2022/08/05 01:34:41;;;;;;;3.87;3.45;;;;;;;29.43;34.30;101107.47;143725;580;47004;-67
2022/08/05 01:37:25;;;;;;;4.60;2.75;;;;;;;29.38;34.48;101107.63;143722;609;47010;-68
2022/08/05 01:39:55;;;;;;;5.95;2.97;;;;;;;29.37;34.14;101115.09;143721;579;47004;-67
2022/08/05 01:42:24;;;;;;;4.12;3.37;;;;;;;29.35;33.71;101114.59;143722;614;46006;-67
2022/08/05 01:44:55;;;;;;;8.88;3.47;;;;;;;29.41;33.82;101112.50;143721;573;47002;-67
2022/08/05 01:47:23;;;;;;;4.80;3.42;;;;;;;29.45;32.95;101119.06;143722;578;47010;-67
2022/08/05 01:49:52;;;;;;;3.80;3.45;;;;;;;29.51;32.70;101109.50;143719;606;47004;-67
2022/08/05 01:52:21;;;;;;;6.97;3.78;;;;;;;29.53;32.76;101107.22;143723;616;47006;-67
2022/08/05 01:54:56;;;;;;;6.40;3.85;;;;;;;29.50;33.34;101108.66;143723;597;47002;-68
2022/08/05 01:57:34;;;;;;;7.40;4.20;;;;;;;29.50;33.31;101107.84;143722;572;47008;-67
2022/08/05 02:00:03;;;;;;;4.43;3.62;;;;;;;29.52;32.62;101121.34;143722;573;47004;-67
2022/08/05 02:02:32;;;;;;;6.43;3.85;;;;;;;29.45;32.84;101114.34;143724;596;46006;-67
2022/08/05 02:05:02;;;;;;;6.80;3.60;;;;;;;29.50;33.01;101118.94;143723;572;47002;-68
2022/08/05 02:07:31;;;;;;;7.72;4.07;;;;;;;29.52;34.25;101119.44;143721;636;47010;-68
2022/08/05 02:09:57;;;;;;;7.25;4.05;;;;;;;29.50;34.12;101121.69;143722;597;47004;-67
2022/08/05 02:12:50;;;;;;;9.90;4.22;;;;;;;29.46;34.25;101110.44;143722;572;47004;-68
2022/08/05 02:15:33;;;;;;;5.78;3.78;;;;;;;29.47;34.83;101112.09;143722;592;47004;-67
2022/08/05 02:18:10;;;;;;;8.90;4.13;;;;;;;29.39;35.78;101104.53;143723;572;47010;-67
2022/08/05 02:20:48;;;;;;;10.88;4.07;;;;;;;29.36;36.09;101104.37;143721;591;47004;-67
2022/08/05 02:23:19;;;;;;;13.62;4.68;;;;;;;29.32;36.04;101102.19;143724;570;46007;-67
2022/08/05 02:25:48;;;;;;;6.15;4.20;;;;;;;29.36;35.83;101107.94;143724;594;47002;-68
2022/08/05 02:28:15;;;;;;;12.43;4.22;;;;;;;29.37;35.82;101106.00;143722;610;47008;-67
2022/08/05 02:30:50;;;;;;;8.65;4.30;;;;;;;29.30;36.44;101101.69;143722;573;47002;-67
2022/08/05 02:33:19;;;;;;;7.87;3.60;;;;;;;29.26;36.23;101105.41;143724;596;47006;-68
2022/08/05 02:35:46;;;;;;;4.80;4.03;;;;;;;29.24;36.70;101100.19;143723;567;47004;-68
2022/08/05 02:38:14;;;;;;;7.85;3.97;;;;;;;29.23;35.92;101106.06;143722;645;47010;-67
2022/08/05 02:40:43;;;;;;;7.50;3.92;;;;;;;29.20;36.32;101101.97;143721;567;47008;-67
2022/08/05 02:43:12;;;;;;;7.55;3.42;;;;;;;29.17;36.88;101100.63;143723;587;47006;-67
2022/08/05 02:45:41;;;;;;;9.10;4.18;;;;;;;29.17;36.48;101100.63;143722;633;48006;-68
2022/08/05 02:48:08;;;;;;;8.75;4.10;;;;;;;29.15;36.63;101100.12;143722;593;47010;-67
2022/08/05 02:50:37;;;;;;;6.35;4.10;;;;;;;29.14;36.39;101101.28;143722;597;47004;-67
2022/08/05 02:53:04;;;;;;;6.82;3.45;;;;;;;29.15;36.84;101102.91;143724;604;47006;-67
2022/08/05 02:55:32;;;;;;;5.40;4.28;;;;;;;29.16;37.06;101098.22;143722;644;47002;-68
2022/08/05 02:58:00;;;;;;;7.12;3.90;;;;;;;29.11;36.83;101092.78;143725;602;46010;-67
2022/08/05 03:00:28;;;;;;;6.50;3.70;;;;;;;29.09;36.92;101097.81;143722;569;47005;-67
2022/08/05 03:02:57;;;;;;;5.70;3.87;;;;;;;29.07;37.13;101094.56;143722;574;47006;-67
2022/08/05 03:05:24;;;;;;;8.77;4.40;;;;;;;29.04;37.08;101099.56;143724;607;47002;-67
2022/08/05 03:07:51;;;;;;;4.97;3.58;;;;;;;28.98;37.39;101095.31;143721;605;47011;-67
2022/08/05 03:10:17;;;;;;;7.78;3.95;;;;;;;28.97;37.20;101090.09;143722;598;47004;-68
2022/08/05 03:12:44;;;;;;;11.85;5.07;;;;;;;28.97;37.27;101082.62;143724;576;46926;-68
2022/08/05 03:15:11;;;;;;;8.40;4.25;;;;;;;28.99;37.09;101085.06;143723;569;47004;-67
2022/08/05 03:17:37;;;;;;;8.57;3.85;;;;;;;29.01;36.99;101088.34;143724;634;47008;-68
2022/08/05 03:20:05;;;;;;;12.45;4.50;;;;;;;29.00;37.09;101082.00;143722;616;47004;-68
2022/08/05 03:22:32;;;;;;;8.98;3.78;;;;;;;29.00;37.28;101095.84;143724;743;47007;-67
2022/08/05 03:24:59;;;;;;;9.52;4.15;;;;;;;29.00;37.02;101098.59;143723;629;47002;-67
2022/08/05 03:27:26;;;;;;;5.93;3.80;;;;;;;28.98;36.89;101102.78;143724;609;47008;-67
2022/08/05 03:29:52;;;;;;;6.72;3.85;;;;;;;28.97;36.74;101096.47;143720;603;47004;-67
2022/08/05 03:32:19;;;;;;;7.12;3.75;;;;;;;28.99;36.53;101093.38;143724;569;46006;-67
2022/08/05 03:34:46;;;;;;;7.72;3.62;;;;;;;28.97;36.42;101101.16;143723;622;47002;-67
2022/08/05 03:37:13;;;;;;;7.30;4.32;;;;;;;28.95;34.78;101108.94;143724;568;46010;-67
2022/08/05 03:39:56;;;;;;;7.32;4.15;;;;;;;28.96;35.10;101107.81;143725;581;47002;-67
2022/08/05 03:42:22;;;;;;;7.60;4.62;;;;;;;29.04;35.17;101113.41;143724;664;46017;-68
2022/08/05 03:44:49;;;;;;;8.35;4.50;;;;;;;29.14;36.42;101109.56;143725;573;47002;-67
2022/08/05 03:47:15;;;;;;;7.55;4.47;;;;;;;29.17;36.22;101110.91;143722;570;47010;-67
2022/08/05 03:49:42;;;;;;;10.00;4.70;;;;;;;29.19;36.79;101117.75;143722;573;47004;-67
2022/08/05 03:52:11;;;;;;;14.85;4.72;;;;;;;29.19;36.26;101106.69;143722;581;46007;-67
2022/08/05 03:55:16;;;;;;;4.90;3.90;;;;;;;29.22;35.88;101110.75;143723;596;47004;-67
2022/08/05 03:57:45;;;;;;;5.87;4.12;;;;;;;29.22;36.72;101119.03;143725;575;46010;-67
2022/08/05 04:00:14;;;;;;;6.05;3.50;;;;;;;29.25;36.09;101115.66;143722;603;47004;-67
2022/08/05 04:02:44;;;;;;;8.13;3.72;;;;;;;29.23;36.08;101117.12;143725;590;46021;-67
2022/08/05 04:05:13;;;;;;;5.45;4.00;;;;;;;29.27;36.07;101118.13;143722;568;47002;-68
2022/08/05 04:07:41;;;;;;;6.20;4.15;;;;;;;29.25;36.78;101120.38;143723;607;47011;-67
2022/08/05 04:10:08;;;;;;;7.60;4.60;;;;;;;29.20;37.17;101127.69;143725;666;47004;-67
2022/08/05 04:12:35;;;;;;;7.37;4.95;;;;;;;29.21;36.93;101122.97;143724;566;47006;-67
2022/08/05 04:15:01;;;;;;;7.75;5.65;;;;;;;29.23;37.08;101126.22;143720;579;47002;-67
2022/08/05 04:17:28;;;;;;;12.50;6.22;;;;;;;29.29;36.88;101129.69;143722;573;47008;-68
2022/08/05 04:19:54;;;;;;;13.05;6.35;;;;;;;29.30;36.89;101132.13;143721;612;47004;-68
2022/08/05 04:22:21;;;;;;;13.23;5.25;;;;;;;29.34;37.54;101135.91;143724;579;47006;-67
2022/08/05 04:24:48;;;;;;;8.93;4.87;;;;;;;29.36;37.05;101124.53;143724;596;47006;-68
2022/08/05 04:27:14;;;;;;;14.15;4.62;;;;;;;29.36;36.77;101134.81;143725;601;47010;-67
2022/08/05 04:29:41;;;;;;;8.77;4.07;;;;;;;29.42;37.65;101141.81;143722;578;47006;-67
2022/08/05 04:32:08;;;;;;;13.57;3.92;;;;;;;29.48;37.15;101133.06;143722;576;47008;-67
2022/08/05 04:34:35;;;;;;;9.07;4.35;;;;;;;29.43;37.15;101135.97;143724;756;47004;-67
2022/08/05 04:37:01;;;;;;;14.00;4.55;;;;;;;29.26;37.65;101141.38;143725;573;47011;-68
2022/08/05 04:39:28;;;;;;;9.40;4.37;;;;;;;29.27;37.92;101138.28;143721;588;47006;-67
2022/08/05 04:41:54;;;;;;;13.05;4.62;;;;;;;29.28;38.00;101139.94;143723;600;46008;-67
2022/08/05 04:44:21;;;;;;;8.70;3.90;;;;;;;29.30;38.00;101132.13;143723;579;47006;-67
2022/08/05 04:46:47;;;;;;;8.35;3.78;;;;;;;29.19;37.68;101134.34;143723;577;47012;-67
2022/08/05 04:49:14;;;;;;;5.72;3.78;;;;;;;29.34;37.57;101135.06;143721;592;47006;-67
2022/08/05 04:51:40;;;;;;;8.18;4.68;;;;;;;29.46;37.64;101142.81;143724;594;47009;-67
2022/08/05 04:54:06;;;;;;;11.55;4.78;;;;;;;29.57;36.41;101143.38;143724;596;47006;-68
2022/08/05 04:56:33;;;;;;;14.45;5.37;;;;;;;29.57;36.29;101146.94;143723;605;47010;-68
2022/08/05 04:58:59;;;;;;;14.20;5.53;;;;;;;29.56;36.25;101138.97;143721;583;47007;-67
2022/08/05 05:01:26;;;;;;;11.85;6.03;;;;;;;29.34;34.87;101140.59;143725;567;47008;-68
2022/08/05 05:03:52;;;;;;;15.55;6.55;;;;;;;29.34;33.63;101141.44;143724;608;47004;-67
2022/08/05 05:06:19;;;;;;;17.87;7.50;;;;;;;29.44;33.44;101137.63;143721;592;47011;-67
2022/08/05 05:08:46;;;;;;;11.57;6.25;;;;;;;29.60;33.71;101132.47;143723;577;47006;-68
2022/08/05 05:11:12;;;;;;;14.30;6.50;;;;;;;29.73;33.12;101150.12;143725;604;46018;-68
2022/08/05 05:13:38;;;;;;;14.65;6.25;;;;;;;29.77;32.76;101145.59;143723;601;47006;-68
2022/08/05 05:16:05;;;;;;;14.43;6.22;;;;;;;29.84;32.60;101139.59;143725;606;46013;-67
2022/08/05 05:18:32;;;;;;;14.85;5.90;;;;;;;29.93;32.30;101145.16;143722;568;47006;-67
2022/08/05 05:20:58;;;;;;;13.88;5.60;;;;;;;30.00;32.54;101142.78;143723;586;46009;-67
2022/08/05 05:23:24;;;;;;;13.02;5.37;;;;;;;30.04;32.22;101137.41;143722;573;47006;-67
2022/08/05 05:25:51;;;;;;;12.15;5.62;;;;;;;30.08;32.03;101144.75;143723;576;47012;-67
2022/08/05 05:28:17;;;;;;;15.50;5.60;;;;;;;30.13;32.02;101141.00;143723;599;47007;-68
2022/08/05 05:30:45;;;;;;;13.50;5.47;;;;;;;30.16;32.49;101140.34;143721;572;46008;-67
2022/08/05 05:33:11;;;;;;;11.90;5.45;;;;;;;30.21;32.42;101145.75;143726;612;47002;-67
2022/08/05 05:35:38;;;;;;;19.42;6.03;;;;;;;30.25;32.73;101148.69;143719;685;47011;-67
2022/08/05 05:38:06;;;;;;;15.43;5.62;;;;;;;30.29;32.59;101137.78;143722;568;47006;-68
2022/08/05 05:40:32;;;;;;;8.13;5.32;;;;;;;30.31;32.66;101141.87;143723;669;46923;-68
2022/08/05 05:42:59;;;;;;;13.48;5.40;;;;;;;30.35;32.38;101140.09;143724;622;47004;-67
2022/08/05 05:45:26;;;;;;;12.07;5.55;;;;;;;30.36;32.94;101136.16;143722;592;47013;-67
2022/08/05 05:47:52;;;;;;;15.30;5.40;;;;;;;30.39;32.41;101137.47;143718;569;48006;-67
2022/08/05 05:50:19;;;;;;;13.32;5.57;;;;;;;30.45;33.50;101135.34;143724;599;46008;-67
2022/08/05 05:52:47;;;;;;;11.38;6.10;;;;;;;30.52;33.91;101141.25;143726;574;47002;-67
2022/08/05 05:55:15;;;;;;;9.98;5.47;;;;;;;30.54;32.87;101145.31;143720;663;47010;-68
2022/08/05 05:57:43;;;;;;;14.82;6.32;;;;;;;30.57;32.88;101141.09;143722;616;47006;-67
2022/08/05 06:00:15;;;;;;;10.95;5.40;;;;;;;30.64;33.52;101137.84;143725;567;46008;-68
2022/08/05 06:02:42;;;;;;;13.73;6.50;;;;;;;30.69;33.22;101138.50;143724;572;47004;-67
2022/08/05 06:05:10;;;;;;;10.32;5.18;;;;;;;30.73;33.56;101141.44;143722;589;47011;-67
2022/08/05 06:07:37;;;;;;;15.93;4.65;;;;;;;30.76;34.80;101146.34;143722;597;47011;-67
2022/08/05 06:10:05;;;;;;;13.95;4.82;;;;;;;30.79;33.41;101145.69;143723;566;47008;-67
2022/08/05 06:12:32;;;;;;;11.93;4.65;;;;;;;30.82;33.69;101142.25;143722;621;47006;-67
2022/08/05 06:15:00;;;;;;;7.43;4.87;;;;;;;30.83;33.67;101138.34;143720;581;47008;-67
2022/08/05 06:17:26;;;;;;;10.55;4.53;;;;;;;30.90;34.02;101142.59;143722;582;47006;-67
2022/08/05 06:19:53;;;;;;;5.82;3.97;;;;;;;30.93;34.70;101142.72;143723;574;46008;-67
2022/08/05 06:22:30;;;;;;;11.38;4.45;;;;;;;30.97;33.82;101140.94;143723;576;47007;-67
2022/08/05 06:24:57;;;;;;;9.45;4.30;;;;;;;31.01;33.46;101146.63;143724;614;46010;-67
2022/08/05 06:27:23;;;;;;;12.43;3.97;;;;;;;31.00;34.91;101148.63;143722;575;47006;-66
2022/08/05 06:29:49;;;;;;;6.15;3.50;;;;;;;31.03;34.97;101149.91;143725;606;47008;-66
2022/08/05 06:32:16;;;;;;;6.75;3.45;;;;;;;31.12;34.67;101147.12;143728;600;47002;-68
2022/08/05 06:34:42;;;;;;;9.48;4.65;;;;;;;31.18;34.31;101143.06;143725;581;46012;-64
2022/08/05 06:37:09;;;;;;;6.87;3.60;;;;;;;31.23;33.90;101144.84;143721;590;47006;-64
2022/08/05 06:39:38;;;;;;;6.60;4.05;;;;;;;31.20;34.38;101151.06;143726;583;46008;-66
2022/08/05 06:42:04;;;;;;;5.18;3.50;;;;;;;31.19;34.32;101147.47;143728;574;47008;-65
2022/08/05 06:44:31;;;;;;;6.93;3.50;;;;;;;31.18;34.02;101148.63;143722;628;47010;-65
2022/08/05 06:46:57;;;;;;;5.55;3.70;;;;;;;31.20;34.29;101139.94;143721;570;47006;-65
2022/08/05 06:49:24;;;;;;;9.45;3.80;;;;;;;31.27;34.21;101143.84;143725;591;47008;-65
2022/08/05 06:51:50;;;;;;;5.25;3.28;;;;;;;31.38;34.57;101140.75;143725;598;47004;-65
2022/08/05 06:54:17;;;;;;;7.80;4.32;;;;;;;31.45;34.64;101141.84;143723;606;47012;-66
2022/08/05 06:56:43;;;;;;;7.65;4.15;;;;;;;31.51;33.89;101145.25;143722;575;47006;-65
2022/08/05 06:59:13;;;;;;;6.35;3.92;;;;;;;31.58;33.09;101137.25;143726;614;46009;-65
2022/08/05 07:01:40;;;;;;;7.30;4.32;;;;;;;31.62;33.64;101137.38;143725;635;47006;-66
2022/08/05 07:04:06;;;;;;;9.02;3.20;;;;;;;31.63;33.26;101136.25;143725;594;46012;-64
2022/08/05 07:06:33;;;;;;;6.37;3.78;;;;;;;31.69;33.65;101140.44;143722;584;47006;-66
2022/08/05 07:09:00;;;;;;;6.05;3.72;;;;;;;31.75;33.07;101132.81;143722;627;46008;-66
2022/08/05 07:11:27;;;;;;;7.72;3.80;;;;;;;31.79;33.01;101133.75;143723;589;47006;-65
2022/08/05 07:16:49;;;;;;;8.50;3.58;;;;;;;31.87;33.67;101130.12;143723;560;47010;-65
2022/08/05 07:19:17;;;;;;;5.87;4.50;;;;;;;31.93;33.50;101132.72;143725;633;46928;-65
2022/08/05 07:21:45;;;;;;;6.93;4.00;;;;;;;31.96;33.64;101132.84;143722;614;47004;-65
2022/08/05 07:24:12;;;;;;;5.85;3.45;;;;;;;32.01;33.47;101134.63;143724;574;47010;-65
2022/08/05 07:26:39;;;;;;;8.98;6.72;;;;;;;32.05;32.91;101136.38;143721;594;47006;-65
2022/08/05 07:29:06;;;;;;;6.03;3.28;;;;;;;32.11;31.79;101138.97;143723;574;47008;-64
2022/08/05 07:31:32;;;;;;;3.67;3.20;;;;;;;32.10;33.35;101142.91;143726;590;47006;-64
2022/08/05 07:33:59;;;;;;;9.82;3.90;;;;;;;32.10;33.91;101134.56;143723;728;47012;-64
2022/08/05 07:36:26;;;;;;;4.30;3.58;;;;;;;32.11;34.06;101142.59;143722;586;47006;-65
2022/08/05 07:38:53;;;;;;;4.85;3.35;;;;;;;32.15;33.59;101137.97;143726;568;47008;-64
2022/08/05 07:41:21;;;;;;;4.85;3.20;;;;;;;32.14;33.23;101133.56;143726;661;47004;-64
2022/08/05 07:43:48;;;;;;;3.65;3.20;;;;;;;32.13;33.25;101140.25;143721;589;47012;-65
2022/08/05 07:46:14;;;;;;;7.90;3.12;;;;;;;32.15;33.16;101135.19;143721;586;47006;-64
2022/08/05 07:48:41;;;;;;;3.45;2.72;;;;;;;32.18;33.21;101126.19;143725;580;46008;-64
2022/08/05 07:51:07;;;;;;;6.05;3.22;;;;;;;32.27;32.84;101136.47;143723;649;47004;-64
2022/08/05 07:53:35;;;;;;;5.12;3.17;;;;;;;32.27;32.32;101130.91;143724;567;47010;-64
2022/08/05 07:56:05;;;;;;;5.25;3.60;;;;;;;32.32;32.06;101133.47;143719;598;47006;-64
2022/08/05 07:58:31;;;;;;;4.82;2.55;;;;;;;32.26;31.71;101134.81;143723;643;46009;-64
2022/08/05 08:00:57;;;;;;;4.80;2.75;;;;;;;32.23;30.78;101133.50;143725;669;47004;-64
2022/08/05 08:03:24;;;;;;;3.97;2.62;;;;;;;32.19;30.40;101138.94;143724;717;47012;-64
2022/08/05 08:05:51;;;;;;;6.95;2.53;;;;;;;32.17;29.51;101144.00;143723;589;47007;-63
2022/08/05 08:08:18;;;;;;;6.68;2.37;;;;;;;32.15;29.63;101137.16;143726;575;46008;-64
2022/08/05 08:10:44;;;;;;;3.55;2.58;;;;;;;32.24;29.29;101145.44;143725;587;47006;-63
2022/08/05 08:13:11;;;;;;;5.35;2.42;;;;;;;32.20;28.78;101140.56;143726;612;46011;-64
2022/08/05 08:15:37;;;;;;;4.05;3.17;;;;;;;32.34;29.20;101139.50;143724;572;47006;-63
2022/08/05 08:18:04;;;;;;;3.00;2.40;;;;;;;32.42;29.22;101141.44;143725;596;47008;-74
2022/08/05 08:20:30;;;;;;;3.50;3.03;;;;;;;32.34;29.20;101142.28;143724;577;48006;-64
2022/08/05 08:22:58;;;;;;;5.53;2.72;;;;;;;32.40;28.74;101140.94;143725;573;47010;-64
2022/08/05 08:25:25;;;;;;;2.72;2.20;;;;;;;32.41;28.91;101137.00;143726;671;46012;-64
2022/08/05 08:27:52;;;;;;;3.80;2.42;;;;;;;32.46;28.67;101138.78;143726;597;47008;-65
2022/08/05 08:30:18;;;;;;;4.47;2.53;;;;;;;32.54;28.25;101137.09;143726;660;47004;-64
2022/08/05 08:32:44;;;;;;;3.78;2.37;;;;;;;32.51;27.69;101135.81;143726;572;46012;-63
2022/08/05 08:35:11;;;;;;;5.45;2.60;;;;;;;32.62;28.29;101142.56;143724;629;47006;-64
2022/08/05 08:37:37;;;;;;;3.42;2.25;;;;;;;32.63;27.98;101140.62;143725;602;46927;-65
2022/08/05 08:40:05;;;;;;;4.80;2.17;;;;;;;32.59;27.82;101140.47;143722;645;47004;-64
2022/08/05 08:42:32;;;;;;;4.12;2.45;;;;;;;32.56;27.68;101132.00;143724;604;47012;-64
2022/08/05 08:44:59;;;;;;;3.15;2.55;;;;;;;32.70;27.34;101138.09;143725;587;47008;-65
2022/08/05 08:47:27;;;;;;;3.72;2.67;;;;;;;32.80;27.29;101140.47;143724;713;46927;-64
2022/08/05 08:49:55;;;;;;;7.80;2.58;;;;;;;32.73;27.91;101139.41;143724;707;47004;-65
2022/08/05 08:52:30;;;;;;;4.15;2.87;;;;;;;32.86;28.07;101129.97;143724;597;47012;-64
2022/08/05 08:54:57;;;;;;;3.80;2.40;;;;;;;32.94;27.88;101129.06;143722;585;48006;-64
2022/08/05 08:57:25;;;;;;;4.82;2.50;;;;;;;32.98;27.49;101120.88;143725;573;46927;-65
2022/08/05 08:59:51;;;;;;;3.28;2.62;;;;;;;33.06;27.23;101127.50;143726;575;47002;-65
2022/08/05 09:02:19;;;;;;;2.37;2.17;;;;;;;33.03;26.96;101120.63;143725;585;47010;-64
2022/08/05 09:04:46;;;;;;;3.37;2.42;;;;;;;33.12;27.10;101117.75;143723;582;47004;-65
2022/08/05 09:07:13;;;;;;;2.58;2.37;;;;;;;33.22;26.77;101120.12;143726;578;47006;-64
2022/08/05 09:09:40;;;;;;;3.10;2.40;;;;;;;33.26;26.68;101109.94;143722;585;47004;-65
2022/08/05 09:12:10;;;;;;;5.20;2.53;;;;;;;33.39;26.74;101108.00;143724;728;47010;-65
2022/08/05 09:14:37;;;;;;;6.50;2.85;;;;;;;33.41;26.53;101110.44;143722;607;47004;-65
2022/08/05 09:17:06;;;;;;;3.95;2.55;;;;;;;33.31;26.91;101099.72;143726;572;47006;-63
2022/08/05 09:19:32;;;;;;;2.78;2.20;;;;;;;33.29;27.53;101105.63;143725;651;47002;-64
2022/08/05 09:21:59;;;;;;;3.72;2.47;;;;;;;33.47;27.34;101095.13;143726;567;46010;-64
2022/08/05 09:24:25;;;;;;;3.30;2.90;;;;;;;33.48;27.52;101096.75;143721;583;48004;-63
2022/08/05 09:26:55;;;;;;;3.83;2.50;;;;;;;33.50;27.32;101097.22;143725;587;47006;-64
2022/08/05 09:29:41;;;;;;;3.60;2.58;;;;;;;33.61;27.60;101091.19;143726;644;47004;-64
2022/08/05 09:32:09;;;;;;;4.22;2.53;;;;;;;33.68;27.31;101080.28;143725;576;47008;-63
2022/08/05 09:34:55;;;;;;;3.03;2.70;;;;;;;33.69;27.42;101079.94;143722;634;47004;-64
2022/08/05 09:37:25;;;;;;;5.25;3.17;;;;;;;33.70;27.52;101084.34;143725;567;47006;-65
2022/08/05 09:39:52;;;;;;;6.50;2.80;;;;;;;33.81;27.41;101076.31;143725;593;47002;-65
2022/08/05 09:42:21;;;;;;;4.50;2.65;;;;;;;33.96;27.31;101079.59;143723;588;47011;-64
2022/08/05 09:44:49;;;;;;;3.72;3.33;;;;;;;34.03;27.03;101081.78;143723;598;47004;-65
2022/08/05 09:47:21;;;;;;;6.85;3.28;;;;;;;33.90;28.52;101072.62;143725;618;46006;-64
2022/08/05 09:49:58;;;;;;;3.87;2.50;;;;;;;33.91;28.30;101075.06;143725;584;47002;-64
2022/08/05 09:52:33;;;;;;;5.32;2.37;;;;;;;33.95;27.16;101072.41;143728;605;46024;-65
2022/08/05 09:55:06;;;;;;;4.72;3.00;;;;;;;34.06;26.85;101069.94;143723;578;47004;-65
2022/08/05 09:57:44;;;;;;;4.93;3.00;;;;;;;34.17;27.36;101073.87;143725;582;46928;-65
2022/08/05 10:00:23;;;;;;;7.50;3.12;;;;;;;34.33;27.08;101071.13;143724;576;47002;-66
2022/08/05 10:02:54;;;;;;;3.65;3.00;;;;;;;34.27;27.00;101061.41;143725;599;47008;-65
2022/08/05 10:05:24;;;;;;;3.60;2.78;;;;;;;34.28;27.42;101066.63;143722;606;47005;-65
2022/08/05 10:07:59;;;;;;;4.00;3.28;;;;;;;34.45;26.30;101061.94;143726;586;46927;-64
2022/08/05 10:10:30;;;;;;;5.32;3.35;;;;;;;34.61;26.45;101062.81;143728;583;46006;-65
2022/08/05 10:13:00;;;;;;;3.37;2.75;;;;;;;34.69;26.95;101074.97;143724;602;47011;-64
2022/08/05 10:15:35;;;;;;;3.90;2.67;;;;;;;34.71;27.27;101055.91;143725;596;47002;-65
2022/08/05 10:18:21;;;;;;;5.12;4.05;;;;;;;34.86;27.45;101050.72;143727;634;47006;-65
2022/08/05 10:20:54;;;;;;;2.72;2.10;;;;;;;34.98;23.02;101056.25;143724;587;47004;-65
2022/08/05 10:23:29;;;;;;;10.70;4.32;;;;;;;35.12;24.26;101046.63;143724;591;47010;-65
2022/08/05 10:25:57;;;;;;;5.22;4.72;;;;;;;35.19;24.31;101058.00;143724;600;47006;-65
2022/08/05 10:28:24;;;;;;;4.25;1.87;;;;;;;35.32;22.99;101059.50;143727;623;46008;-65
2022/08/05 10:30:54;;;;;;;4.10;2.65;;;;;;;35.45;22.62;101065.84;143727;617;47004;-66
2022/08/05 10:33:22;;;;;;;3.30;2.42;;;;;;;35.58;22.61;101063.75;143722;630;47012;-64
2022/08/05 10:35:53;;;;;;;7.82;4.90;;;;;;;35.64;22.22;101061.50;143723;567;47006;-65
2022/08/05 10:38:24;;;;;;;2.75;2.55;;;;;;;35.70;23.66;101062.03;143727;589;46008;-66
2022/08/05 10:40:59;;;;;;;3.35;2.90;;;;;;;35.81;23.28;101049.94;143727;647;47006;-65
2022/08/05 10:43:57;;;;;;;4.18;2.92;;;;;;;35.86;22.26;101048.00;143723;623;47012;-65
2022/08/05 10:46:41;;;;;;;3.47;2.30;;;;;;;35.89;21.69;101052.88;143725;612;47006;-65
2022/08/05 10:49:08;;;;;;;7.03;2.30;;;;;;;35.93;22.61;101040.59;143720;603;48018;-66
2022/08/05 10:51:47;;;;;;;5.78;3.85;;;;;;;35.98;22.33;101050.72;143726;643;47006;-64
2022/08/05 10:54:15;;;;;;;4.70;2.85;;;;;;;36.05;21.66;101039.69;143725;592;47012;-66
2022/08/05 10:56:49;;;;;;;3.85;2.87;;;;;;;36.13;21.27;101042.66;143723;612;47007;-64
2022/08/05 10:59:18;;;;;;;5.43;4.85;;;;;;;36.13;22.31;101045.44;143726;646;47008;-65
2022/08/05 11:01:45;;;;;;;5.15;2.90;;;;;;;36.14;21.78;101042.25;143723;579;47006;-65
2022/08/05 11:04:16;;;;;;;3.65;2.25;;;;;;;36.17;20.72;101046.34;143725;730;47010;-65
2022/08/05 11:07:17;;;;;;;5.70;4.87;;;;;;;36.18;21.43;101036.78;143723;595;47006;-65
2022/08/05 11:09:49;;;;;;;4.10;3.70;;;;;;;36.14;21.34;101030.28;143725;629;46995;-65
2022/08/05 11:12:43;;;;;;;3.28;2.37;;;;;;;36.16;21.89;101036.31;143726;620;47006;-65
2022/08/05 11:15:29;;;;;;;5.50;3.62;;;;;;;36.17;21.55;101041.53;143726;570;47006;-66
2022/08/05 11:18:32;;;;;;;6.53;3.20;;;;;;;36.20;21.83;101032.41;143720;592;47006;-66
2022/08/05 11:20:58;;;;;;;2.72;1.98;;;;;;;36.17;21.51;101033.16;143726;568;47008;-64
2022/08/05 11:24:01;;;;;;;4.03;2.08;;;;;;;36.16;20.98;101022.34;143723;585;47004;-65
2022/08/05 11:26:27;;;;;;;4.20;3.80;;;;;;;36.22;21.97;101024.47;143725;817;47010;-64
2022/08/05 11:28:54;;;;;;;3.10;2.58;;;;;;;36.26;21.32;101030.13;143723;709;47006;-65
2022/08/05 11:31:32;;;;;;;6.03;4.12;;;;;;;36.25;22.29;101020.94;143725;636;46008;-64
2022/08/05 11:34:01;;;;;;;5.62;3.03;;;;;;;36.23;20.82;101017.69;143726;570;47007;-66
2022/08/05 11:36:43;;;;;;;4.12;3.70;;;;;;;36.26;22.11;101018.94;143724;573;47012;-67
2022/08/05 11:39:13;;;;;;;4.53;2.47;;;;;;;36.32;21.94;101011.06;143724;758;47006;-65